»·PEaware :: N286WF KSBP-KSBA

N286WF :: KSBP-KSBA

FLIGHT INFORMATION

Flight Status: Arrived
Operator: Privately registered:
United States
More flights under this callsign
Pilot: Frank W. (16848)
Aircraft: Unknown
(P28U)
More flights by this aircraft type
Origin: KSBP San Luis Co Regl
United States
Destination: KSBA Santa Barbara Mun
United States
More flights between these airports :: More routes between these airports
Route: GLJ GVO
File this flight plan on PilotEdge
Remarks:
Altitude:
(Current/Filed)
6,500ft
Speed:
(Current/Filed)
140kts
Departed: 20-Jan-20 06:38 PM
Arrived: 20-Jan-20 07:21 PM
Distance/Time
Traveled:
63nm/0:43
Distance/Time
To Go:
Arrived

Flight Plot

Page will automatically refresh every two minutes.


Map Options




Map Legend


Flown Route
Filed Route
Departure Airport
Arrival Airport
Navaid (VOR, NDB)
Fix

Horizontal Profiles

Position Reports

Time Latitude Longitude Heading Altitude Ground
Speed
20-Jan-20 18:19 35.236418 -120.635835 141 215ft 0kts
20-Jan-20 18:20 35.236418 -120.635835 141 215ft 0kts
20-Jan-20 18:20 35.236418 -120.635835 141 215ft 0kts
20-Jan-20 18:21 35.236418 -120.635835 141 215ft 0kts
20-Jan-20 18:23 35.236418 -120.635835 141 215ft 0kts
20-Jan-20 18:23 35.236418 -120.635835 141 215ft 0kts
20-Jan-20 18:24 35.236418 -120.635835 141 215ft 0kts
20-Jan-20 18:25 35.236418 -120.635835 141 215ft 0kts
20-Jan-20 18:26 35.236418 -120.635835 141 215ft 0kts
20-Jan-20 18:27 35.236418 -120.635835 141 215ft 0kts
20-Jan-20 18:28 35.235924 -120.636402 178 215ft 7kts
20-Jan-20 18:29 35.233188 -120.632080 285 215ft 0kts
20-Jan-20 18:30 35.233188 -120.632080 285 215ft 0kts
20-Jan-20 18:31 35.233188 -120.632081 284 215ft 0kts
20-Jan-20 18:32 35.233188 -120.632080 285 215ft 0kts
20-Jan-20 18:33 35.233188 -120.632080 285 215ft 0kts
20-Jan-20 18:34 35.233188 -120.632080 285 215ft 0kts
20-Jan-20 18:35 35.233196 -120.632347 223 215ft 1kts
20-Jan-20 18:36 35.232790 -120.632719 213 215ft 8kts
20-Jan-20 18:37 35.235429 -120.637768 302 215ft 77kts
20-Jan-20 18:38 35.249180 -120.661396 300 808ft 95kts
20-Jan-20 18:39 35.234957 -120.659055 105 1659ft 92kts
20-Jan-20 18:40 35.246931 -120.648882 256 2423ft 98kts
20-Jan-20 18:41 35.221897 -120.643673 154 2719ft 122kts
20-Jan-20 18:42 35.193318 -120.626837 158 3220ft 115kts
20-Jan-20 18:43 35.165400 -120.611097 149 3750ft 115kts
20-Jan-20 18:44 35.135843 -120.601372 165 4234ft 112kts
20-Jan-20 18:45 35.106375 -120.589786 154 4730ft 113kts
20-Jan-20 18:46 35.079623 -120.573798 162 5414ft 104kts
20-Jan-20 18:47 35.052157 -120.561351 164 6035ft 105kts
20-Jan-20 18:48 35.024182 -120.548976 165 6642ft 107kts
20-Jan-20 18:49 34.990298 -120.532954 172 6449ft 137kts
20-Jan-20 18:50 34.954474 -120.521560 168 6409ft 129kts
20-Jan-20 18:51 34.921245 -120.505812 165 6497ft 131kts
20-Jan-20 18:52 34.889315 -120.484002 147 6453ft 140kts
20-Jan-20 18:53 34.863074 -120.449658 140 6531ft 138kts
20-Jan-20 18:54 34.835201 -120.417904 142 6624ft 137kts
20-Jan-20 18:55 34.807035 -120.386615 143 6717ft 136kts
20-Jan-20 18:56 34.778674 -120.355652 143 6670ft 136kts
20-Jan-20 18:57 34.750492 -120.325055 143 6593ft 135kts
20-Jan-20 18:58 34.722219 -120.294339 143 6514ft 135kts
20-Jan-20 18:59 34.694150 -120.263774 143 6466ft 135kts
20-Jan-20 19:00 34.665933 -120.233038 143 6458ft 135kts
20-Jan-20 19:01 34.637811 -120.202443 143 6467ft 135kts
20-Jan-20 19:02 34.609564 -120.171750 143 6478ft 135kts
20-Jan-20 19:03 34.581452 -120.141241 143 6489ft 135kts
20-Jan-20 19:04 34.553290 -120.110719 143 6500ft 135kts
20-Jan-20 19:05 34.524742 -120.082295 140 5888ft 134kts
20-Jan-20 19:06 34.499697 -120.066303 223 5295ft 114kts
20-Jan-20 19:07 34.495193 -120.102938 289 4787ft 120kts
20-Jan-20 19:08 34.522885 -120.108698 53 4582ft 112kts
20-Jan-20 19:09 34.517753 -120.077080 177 4339ft 107kts
20-Jan-20 19:10 34.508163 -120.100206 294 4665ft 97kts
20-Jan-20 19:11 34.533617 -120.105954 46 4986ft 123kts
20-Jan-20 19:12 34.520477 -120.074468 154 4988ft 133kts
20-Jan-20 19:13 34.493820 -120.041430 137 4779ft 133kts
20-Jan-20 19:14 34.484917 -119.999425 103 4026ft 127kts
20-Jan-20 19:15 34.478991 -119.957537 101 3046ft 122kts
20-Jan-20 19:16 34.472386 -119.918488 105 2301ft 112kts
20-Jan-20 19:17 34.467149 -119.886464 105 1586ft 89kts
20-Jan-20 19:18 34.459893 -119.853158 117 1321ft 104kts
20-Jan-20 19:19 34.434897 -119.841652 165 277ft 86kts
20-Jan-20 19:20 34.426703 -119.838586 87 10ft 0kts
20-Jan-20 19:21 34.424968 -119.837813 165 12ft 19kts
20-Jan-20 19:22 34.422407 -119.837120 343 12ft 13kts
20-Jan-20 19:23 34.422981 -119.835901 355 10ft 0kts
20-Jan-20 19:24 34.422981 -119.835901 355 10ft 0kts
20-Jan-20 19:25 34.422981 -119.835901 355 10ft 0kts
20-Jan-20 19:26 34.422981 -119.835901 355 10ft 0kts
20-Jan-20 19:27 34.422981 -119.835901 355 10ft 0kts
20-Jan-20 19:28 34.422981 -119.835901 355 10ft 0kts
20-Jan-20 19:29 34.422981 -119.835901 355 10ft 0kts
20-Jan-20 19:30 34.422981 -119.835901 355 10ft 0kts
20-Jan-20 19:31 34.422981 -119.835901 355 10ft 0kts
20-Jan-20 19:32 34.422981 -119.835901 355 10ft 0kts
20-Jan-20 19:33 34.422981 -119.835901 355 10ft 0kts
20-Jan-20 19:34 34.422981 -119.835901 355 10ft 0kts

Navigation Log

Ident Type
Flight plan parsing failed, navigation log unavailable